Time;durP1;ratioP1;P1;durP2;ratioP2;P2;SDS_P1;SDS_P2;PMS_P1;PMS_P2;Temp;Humidity;BMP_temperature;BMP_pressure;BME280_temperature;BME280_humidity;BME280_pressure;Samples;Min_cycle;Max_cycle;Signal;HPM_P1;HPM_P2
2021/12/22 00:00:26;;;;;;;182.02;103.88;;;13.70;2201.60;;;;;;4946995;29;19907;-79
2021/12/22 00:02:53;;;;;;;180.13;97.30;;;13.60;2201.60;;;;;;4946862;29;20119;-79
2021/12/22 00:05:27;;;;;;;167.93;97.45;;;13.70;2201.60;;;;;;4930902;29;20035;-79
2021/12/22 00:07:54;;;;;;;167.88;93.82;;;13.60;2201.60;;;;;;4947700;29;20028;-79
2021/12/22 00:10:21;;;;;;;162.13;93.95;;;13.60;2201.60;;;;;;4946685;29;20055;-79
2021/12/22 00:12:49;;;;;;;169.38;100.43;;;13.60;2201.60;;;;;;4926682;29;20494;-78
2021/12/22 00:15:15;;;;;;;172.65;96.07;;;13.50;2201.60;;;;;;4945826;29;20047;-79
2021/12/22 00:17:43;;;;;;;176.50;104.60;;;13.50;2201.60;;;;;;4933285;29;20036;-77
2021/12/22 00:20:10;;;;;;;183.85;109.45;;;13.50;2201.60;;;;;;4932164;29;20099;-78
2021/12/22 00:22:36;;;;;;;174.93;96.32;;;13.50;2201.60;;;;;;4932427;29;20036;-78
2021/12/22 00:25:03;;;;;;;126.38;73.85;;;13.50;2201.60;;;;;;4939367;29;20072;-78
2021/12/22 00:27:30;;;;;;;122.13;65.80;;;13.60;2201.60;;;;;;4921136;29;20028;-79
2021/12/22 00:29:56;;;;;;;99.78;55.63;;;13.60;2201.60;;;;;;4937466;29;20122;-79
2021/12/22 00:32:25;;;;;;;82.32;47.33;;;13.50;2201.60;;;;;;4940793;29;20070;-78
2021/12/22 00:34:53;;;;;;;81.97;42.83;;;13.50;2201.60;;;;;;4924286;29;20036;-79
2021/12/22 00:37:23;;;;;;;71.63;40.03;;;13.50;2201.60;;;;;;4922551;29;20380;-79
2021/12/22 00:39:50;;;;;;;61.28;38.13;;;13.50;2201.60;;;;;;4941662;29;20035;-79
2021/12/22 00:42:17;;;;;;;66.90;39.22;;;13.40;2201.60;;;;;;4940314;29;20495;-78
2021/12/22 00:44:46;;;;;;;62.30;39.42;;;13.40;2201.60;;;;;;4946904;29;20032;-79
2021/12/22 00:47:12;;;;;;;70.50;40.45;;;13.30;2201.60;;;;;;4934002;29;20034;-80
2021/12/22 00:49:38;;;;;;;63.72;37.95;;;13.20;2201.60;;;;;;4941179;29;20047;-79
2021/12/22 00:52:04;;;;;;;65.88;35.58;;;13.20;2201.60;;;;;;4924035;29;20112;-79
2021/12/22 00:54:31;;;;;;;65.88;36.80;;;13.20;2201.60;;;;;;4935421;29;20020;-79
2021/12/22 00:57:03;;;;;;;65.85;39.15;;;13.20;2201.60;;;;;;4924875;29;20048;-78
2021/12/22 00:59:32;;;;;;;76.50;40.55;;;13.30;2201.60;;;;;;4940846;29;20031;-79
2021/12/22 01:01:57;;;;;;;67.82;39.05;;;13.40;2201.60;;;;;;4928330;29;20066;-79
2021/12/22 01:04:23;;;;;;;72.68;40.10;;;13.40;2201.60;;;;;;4946318;29;20035;-79
2021/12/22 01:06:49;;;;;;;67.88;36.53;;;13.40;2201.60;;;;;;4951862;29;20092;-79
2021/12/22 01:09:17;;;;;;;67.28;37.67;;;13.50;2201.60;;;;;;4944329;29;20060;-79
2021/12/22 01:11:43;;;;;;;64.97;38.53;;;13.20;2201.60;;;;;;4928253;29;20080;-79
2021/12/22 01:14:09;;;;;;;63.63;39.13;;;13.50;2201.60;;;;;;4935632;29;20443;-79
2021/12/22 01:16:35;;;;;;;68.93;36.95;;;13.30;2201.60;;;;;;4936538;29;20491;-79
2021/12/22 01:19:05;;;;;;;76.72;43.17;;;13.30;2201.60;;;;;;4927451;29;20036;-79
2021/12/22 01:21:46;;;;;;;81.57;45.72;;;13.20;2201.60;;;;;;4923653;29;20036;-79
2021/12/22 01:24:22;;;;;;;72.35;41.38;;;13.30;2201.60;;;;;;4920926;29;20036;-78
2021/12/22 01:26:53;;;;;;;82.93;44.38;;;13.40;2201.60;;;;;;4920049;29;20130;-78
2021/12/22 01:29:20;;;;;;;101.70;43.97;;;13.10;2201.60;;;;;;4927182;29;21681;-79
2021/12/22 01:31:46;;;;;;;73.15;41.50;;;13.40;2201.60;;;;;;4927835;29;20064;-79
2021/12/22 01:34:12;;;;;;;74.72;41.50;;;13.40;2201.60;;;;;;4922757;29;20032;-79
2021/12/22 01:36:38;;;;;;;78.07;45.00;;;13.40;2201.60;;;;;;4918809;29;20059;-79
2021/12/22 01:39:10;;;;;;;71.32;44.70;;;13.50;2201.60;;;;;;4946634;29;20110;-79
2021/12/22 01:41:51;;;;;;;89.30;45.30;;;13.40;2201.60;;;;;;4940941;29;20023;-80
2021/12/22 01:50:54;;;;;;;77.90;43.90;;;13.30;2201.60;;;;;;4841018;29;20535;-79
2021/12/22 01:53:46;;;;;;;72.30;40.85;;;13.40;2201.60;;;;;;4841704;29;20065;-79
2021/12/22 01:56:26;;;;;;;73.43;40.50;;;13.30;2201.60;;;;;;4839084;29;20545;-79
2021/12/22 01:58:58;;;;;;;81.63;46.25;;;13.20;2201.60;;;;;;4837874;29;20052;-80
2021/12/22 02:01:32;;;;;;;80.43;45.90;;;13.20;2201.60;;;;;;4834613;29;20039;-79
2021/12/22 02:03:59;;;;;;;73.05;44.47;;;13.30;2201.60;;;;;;4834538;29;20149;-79
2021/12/22 02:06:30;;;;;;;106.25;58.45;;;13.40;2201.60;;;;;;4834945;29;20042;-79
2021/12/22 02:08:58;;;;;;;100.72;52.30;;;13.30;2201.60;;;;;;4833721;29;20090;-80
2021/12/22 02:11:24;;;;;;;116.07;64.63;;;13.20;2201.60;;;;;;4819003;29;20141;-78
2021/12/22 02:13:59;;;;;;;85.13;51.75;;;13.20;2201.60;;;;;;4824929;29;20530;-78
2021/12/22 02:16:31;;;;;;;85.72;46.72;;;13.20;2201.60;;;;;;4825037;29;20166;-78
2021/12/22 02:18:59;;;;;;;94.72;48.95;;;13.10;2201.60;;;;;;4825533;29;20166;-78
2021/12/22 02:21:28;;;;;;;94.45;52.08;;;13.10;2201.60;;;;;;4826931;29;20110;-78
2021/12/22 02:23:54;;;;;;;79.68;48.20;;;13.00;2201.60;;;;;;4904508;29;20491;-79
2021/12/22 02:26:26;;;;;;;139.77;67.93;;;13.00;2201.60;;;;;;4923822;29;20032;-79
2021/12/22 02:29:03;;;;;;;89.00;49.72;;;13.00;2201.60;;;;;;4939711;29;20067;-78
2021/12/22 02:31:32;;;;;;;86.50;48.47;;;12.90;2201.60;;;;;;4939663;29;20059;-78
2021/12/22 02:33:59;;;;;;;80.30;45.75;;;0.00;2201.60;;;;;;4922681;29;20091;-78
2021/12/22 02:36:29;;;;;;;81.13;45.47;;;0.00;2201.60;;;;;;4922792;29;20087;-77
2021/12/22 02:38:58;;;;;;;130.52;69.38;;;0.10;2201.60;;;;;;4939748;29;20059;-78
2021/12/22 02:41:28;;;;;;;101.07;52.75;;;0.00;2201.60;;;;;;4923209;29;20042;-78
2021/12/22 02:43:56;;;;;;;76.63;45.33;;;12.90;2201.60;;;;;;4940693;29;20040;-77
2021/12/22 02:46:35;;;;;;;79.90;42.92;;;0.00;2201.60;;;;;;4923780;29;20031;-78
2021/12/22 02:49:08;;;;;;;79.43;44.38;;;0.10;2201.60;;;;;;4940827;29;20457;-79
2021/12/22 02:51:35;;;;;;;100.10;53.90;;;0.10;2201.60;;;;;;4941845;29;20118;-79
2021/12/22 02:57:07;;;;;;;83.00;46.30;;;0.20;2201.60;;;;;;4888883;29;20036;-78
2021/12/22 03:05:19;;;;;;;70.40;39.60;;;0.00;2201.60;;;;;;4848187;29;20056;-79
2021/12/22 03:07:47;;;;;;;73.13;42.67;;;12.90;2201.60;;;;;;4832024;29;20074;-78
2021/12/22 03:10:14;;;;;;;89.30;49.15;;;12.90;2201.60;;;;;;4841725;29;20040;-78
2021/12/22 03:12:41;;;;;;;81.47;46.47;;;0.00;2201.60;;;;;;4839917;29;20038;-78
2021/12/22 03:15:09;;;;;;;78.35;39.90;;;0.00;2201.60;;;;;;4844019;29;20042;-78
2021/12/22 03:17:37;;;;;;;69.07;39.17;;;0.10;2201.60;;;;;;4858324;29;20042;-79
2021/12/22 03:20:04;;;;;;;62.33;39.45;;;0.10;2201.60;;;;;;4844571;29;20041;-78
2021/12/22 03:22:38;;;;;;;63.92;37.42;;;0.10;2201.60;;;;;;4862227;29;20432;-79
2021/12/22 03:25:13;;;;;;;67.22;36.42;;;0.10;2201.60;;;;;;4873529;29;20200;-79
2021/12/22 03:27:41;;;;;;;76.93;45.20;;;0.10;2201.60;;;;;;4849937;29;20034;-79
2021/12/22 03:30:08;;;;;;;93.15;49.60;;;0.00;2201.60;;;;;;4846158;29;20171;-79
2021/12/22 03:32:34;;;;;;;88.55;50.58;;;0.00;2201.60;;;;;;4861615;29;20493;-78
2021/12/22 03:35:00;;;;;;;84.57;49.13;;;0.00;2201.60;;;;;;4898481;29;20076;-78
2021/12/22 03:37:26;;;;;;;97.32;53.97;;;0.00;2201.60;;;;;;4898883;29;20040;-78
2021/12/22 03:39:52;;;;;;;79.07;45.20;;;0.00;2201.60;;;;;;4915033;29;20060;-78
2021/12/22 03:42:18;;;;;;;90.45;45.13;;;12.90;2201.60;;;;;;4911457;29;20467;-78
2021/12/22 03:44:44;;;;;;;74.18;45.72;;;0.00;2201.60;;;;;;4918893;29;20515;-78
2021/12/22 03:47:13;;;;;;;74.80;44.17;;;0.10;2201.60;;;;;;4937422;29;20036;-78
2021/12/22 03:49:38;;;;;;;69.53;41.75;;;0.10;2201.60;;;;;;4921334;29;20063;-78
2021/12/22 03:52:05;;;;;;;79.88;45.03;;;0.10;2201.60;;;;;;4924105;29;20032;-79
2021/12/22 03:54:31;;;;;;;87.80;48.78;;;0.10;2201.60;;;;;;4925838;29;20035;-79
2021/12/22 03:56:57;;;;;;;81.45;47.22;;;0.20;2201.60;;;;;;4924651;29;20035;-78
2021/12/22 03:59:24;;;;;;;88.38;47.50;;;0.20;2201.60;;;;;;4924681;29;20044;-78
2021/12/22 04:01:51;;;;;;;99.75;53.97;;;0.10;2201.60;;;;;;4941080;29;20115;-78
2021/12/22 04:04:18;;;;;;;71.72;41.97;;;0.10;2201.60;;;;;;4941549;29;20036;-78
2021/12/22 04:06:46;;;;;;;68.93;39.15;;;0.10;2201.60;;;;;;4941905;29;20028;-78
2021/12/22 04:09:14;;;;;;;71.25;41.78;;;0.00;2201.60;;;;;;4924395;29;20091;-78
2021/12/22 04:11:44;;;;;;;72.10;41.17;;;0.00;2201.60;;;;;;4923575;29;20040;-78
2021/12/22 04:14:11;;;;;;;69.60;39.90;;;12.90;2201.60;;;;;;4925685;29;20467;-79
2021/12/22 04:16:37;;;;;;;75.78;41.15;;;0.00;2201.60;;;;;;4927230;29;20039;-79
2021/12/22 04:19:04;;;;;;;71.97;41.95;;;0.10;2201.60;;;;;;4942935;29;20078;-80
2021/12/22 04:21:30;;;;;;;91.18;48.90;;;0.10;2201.60;;;;;;4926614;29;20055;-78
2021/12/22 04:23:57;;;;;;;87.45;47.42;;;0.10;2201.60;;;;;;4926636;29;20407;-79
2021/12/22 04:26:27;;;;;;;77.95;46.85;;;0.00;2201.60;;;;;;4941013;29;20027;-80
2021/12/22 04:28:54;;;;;;;89.47;49.95;;;0.10;2201.60;;;;;;4924119;29;20039;-79
2021/12/22 04:31:21;;;;;;;78.57;47.88;;;0.10;2201.60;;;;;;4930552;29;20103;-79
2021/12/22 04:33:47;;;;;;;97.00;51.72;;;0.10;2201.60;;;;;;4910875;29;20035;-79
2021/12/22 04:36:13;;;;;;;85.82;49.17;;;0.00;2201.60;;;;;;4927910;29;20040;-79
2021/12/22 04:38:39;;;;;;;94.90;55.45;;;0.10;2201.60;;;;;;4909179;29;20603;-79
2021/12/22 04:41:09;;;;;;;92.80;56.83;;;0.10;2201.60;;;;;;4909204;29;20263;-79
2021/12/22 04:44:17;;;;;;;104.97;57.80;;;0.20;2201.60;;;;;;4910435;29;20045;-80
2021/12/22 14:29:31;;;;;;;30.33;18.17;;;102.90;2227.20;;;;;;5164674;23;20026;-78
2021/12/22 14:32:01;;;;;;;28.10;16.83;;;102.90;2227.20;;;;;;4895224;29;20045;-79
2021/12/22 14:34:28;;;;;;;37.85;20.25;;;102.80;2227.20;;;;;;4829853;29;20056;-79
2021/12/22 14:39:54;;;;;;;58.40;23.43;;;102.50;2227.20;;;;;;5128327;23;20071;-80
2021/12/22 14:45:55;;;;;;;36.20;19.80;;;77.70;2227.20;;;;;;5191452;23;20120;-80
2021/12/22 14:49:18;;;;;;;41.17;25.35;;;77.60;2227.20;;;;;;4906821;29;20048;-80
2021/12/22 14:52:07;;;;;;;31.90;18.73;;;77.50;2227.20;;;;;;4870075;29;20053;-80
2021/12/22 14:54:36;;;;;;;36.25;21.45;;;77.30;2227.20;;;;;;4817840;29;20057;-80
2021/12/22 14:57:06;;;;;;;49.45;27.67;;;77.20;2227.20;;;;;;4844138;29;20059;-79
2021/12/22 14:59:52;;;;;;;45.33;22.05;;;77.10;2227.20;;;;;;4851776;29;20050;-80
2021/12/22 15:02:28;;;;;;;39.33;20.08;;;76.90;2227.20;;;;;;4842793;29;20034;-80
2021/12/22 15:04:56;;;;;;;41.60;23.17;;;76.80;2227.20;;;;;;4855486;29;20045;-79
2021/12/22 15:07:22;;;;;;;48.28;18.48;;;76.80;2227.20;;;;;;4836362;29;20117;-78
2021/12/22 15:09:48;;;;;;;43.80;18.70;;;51.90;2227.20;;;;;;4847693;29;20085;-77
2021/12/22 15:12:13;;;;;;;26.45;14.13;;;52.00;2227.20;;;;;;4847193;29;20034;-78
2021/12/22 15:14:39;;;;;;;36.90;17.17;;;51.90;2227.20;;;;;;4835464;29;20114;-80
2021/12/22 15:17:05;;;;;;;31.15;14.43;;;51.80;2227.20;;;;;;4837628;29;20057;-79
2021/12/22 15:19:31;;;;;;;28.02;15.25;;;51.60;2227.20;;;;;;4859112;29;20059;-79
2021/12/22 15:21:58;;;;;;;33.40;16.35;;;51.60;2227.20;;;;;;4857866;29;20026;-79
2021/12/22 15:24:33;;;;;;;27.73;16.98;;;51.60;2227.20;;;;;;4854564;29;20021;-81
2021/12/22 15:27:03;;;;;;;33.50;17.50;;;51.40;2227.20;;;;;;4839186;29;20041;-80
2021/12/22 15:29:30;;;;;;;36.17;18.88;;;51.40;2227.20;;;;;;4915061;29;20175;-79
2021/12/22 15:32:01;;;;;;;32.95;16.85;;;51.40;2227.20;;;;;;4915707;29;20037;-80
2021/12/22 15:34:30;;;;;;;34.92;20.45;;;51.20;2227.20;;;;;;4905022;29;20027;-78
2021/12/22 15:36:56;;;;;;;29.65;16.52;;;51.20;2227.20;;;;;;4903424;29;20032;-78
2021/12/22 15:39:22;;;;;;;28.60;15.85;;;51.20;2227.20;;;;;;4886125;29;20495;-79
2021/12/22 15:41:51;;;;;;;27.88;17.63;;;26.50;2201.60;;;;;;4878246;29;20389;-79
2021/12/22 15:44:16;;;;;;;35.53;20.35;;;26.50;2201.60;;;;;;4884914;29;20052;-77
2021/12/22 15:46:42;;;;;;;33.95;17.25;;;26.40;2201.60;;;;;;4892321;29;20051;-78
2021/12/22 15:49:15;;;;;;;27.08;16.33;;;26.40;2201.60;;;;;;4893537;29;20092;-80
2021/12/22 15:51:41;;;;;;;41.63;23.63;;;26.40;2201.60;;;;;;4890052;29;20029;-77
2021/12/22 15:54:07;;;;;;;41.45;23.05;;;26.40;2201.60;;;;;;4910980;29;20100;-77
2021/12/22 15:56:33;;;;;;;46.78;24.48;;;26.40;2201.60;;;;;;4893824;29;20120;-77
2021/12/22 15:58:59;;;;;;;58.53;26.05;;;26.30;2201.60;;;;;;4885461;29;20501;-79
2021/12/22 16:01:24;;;;;;;59.42;31.83;;;26.40;2201.60;;;;;;4892109;29;20119;-78
2021/12/22 16:03:50;;;;;;;61.08;29.83;;;26.30;2201.60;;;;;;4895211;29;20036;-78
2021/12/22 16:06:19;;;;;;;63.55;30.60;;;26.30;2201.60;;;;;;4907206;29;20036;-78
2021/12/22 16:09:35;;;;;;;81.88;35.90;;;26.30;2201.60;;;;;;4921770;29;20032;-79
2021/12/22 16:12:09;;;;;;;78.15;37.80;;;26.40;2201.60;;;;;;4916598;29;20013;-79
2021/12/22 16:15:06;;;;;;;73.15;36.92;;;26.50;2201.60;;;;;;4896941;29;20024;-79
2021/12/22 16:20:59;;;;;;;71.68;34.63;;;26.30;2201.60;;;;;;4874643;29;20075;-79
2021/12/22 16:24:00;;;;;;;60.72;26.75;;;26.30;2201.60;;;;;;4873529;29;20054;-79
2021/12/22 16:26:29;;;;;;;52.00;25.60;;;26.30;2201.60;;;;;;4863450;29;20026;-79
2021/12/22 16:28:54;;;;;;;49.53;24.15;;;26.20;2201.60;;;;;;4838428;29;20525;-78
2021/12/22 16:31:23;;;;;;;43.35;24.35;;;26.20;2201.60;;;;;;4844456;29;20055;-79
2021/12/22 16:33:50;;;;;;;41.28;22.77;;;26.20;2201.60;;;;;;4857166;29;20126;-80
2021/12/22 16:36:16;;;;;;;41.10;22.35;;;26.10;2201.60;;;;;;4855264;29;20042;-79
2021/12/22 16:39:02;;;;;;;47.97;26.13;;;26.10;2201.60;;;;;;4843245;29;20042;-79
2021/12/22 16:41:29;;;;;;;42.90;24.63;;;26.00;2201.60;;;;;;4832848;29;20084;-78
2021/12/22 16:43:56;;;;;;;40.25;24.92;;;26.00;2201.60;;;;;;4846927;29;20042;-78
2021/12/22 16:46:22;;;;;;;50.03;26.67;;;26.00;2201.60;;;;;;4831494;29;20042;-78
2021/12/22 16:48:48;;;;;;;48.10;25.42;;;25.90;2201.60;;;;;;4826883;29;20038;-78
2021/12/22 16:51:15;;;;;;;50.42;26.23;;;25.80;2201.60;;;;;;4853570;29;20049;-78
2021/12/22 16:53:44;;;;;;;49.58;29.48;;;25.80;2201.60;;;;;;4886006;29;20043;-78
2021/12/22 16:56:50;;;;;;;44.95;26.67;;;25.80;2201.60;;;;;;4912010;29;20024;-79
2021/12/22 16:59:40;;;;;;;43.78;24.83;;;25.70;2201.60;;;;;;4909136;29;20036;-81
2021/12/22 17:02:34;;;;;;;46.70;24.95;;;25.70;2201.60;;;;;;4922347;29;20041;-79
2021/12/22 17:05:10;;;;;;;50.83;26.42;;;25.80;2201.60;;;;;;4904142;29;20073;-78
2021/12/22 17:08:18;;;;;;;46.42;27.75;;;25.70;2201.60;;;;;;4900218;29;20130;-79
2021/12/22 17:11:52;;;;;;;41.43;24.00;;;25.80;2201.60;;;;;;4848542;29;20031;-79
2021/12/22 17:21:48;;;;;;;44.10;23.23;;;25.70;2201.60;;;;;;4776860;29;20103;-80
2021/12/22 17:37:59;;;;;;;46.33;22.70;;;25.60;2201.60;;;;;;5723857;23;20031;-78
2021/12/22 17:40:50;;;;;;;50.72;26.88;;;0.90;2201.60;;;;;;4864739;29;20090;-79
2021/12/22 17:44:09;;;;;;;41.05;23.05;;;25.60;2201.60;;;;;;4863231;29;20113;-79
2021/12/22 17:47:16;;;;;;;64.68;27.65;;;25.70;2201.60;;;;;;4800024;30;20068;-78
2021/12/22 18:31:50;;;;;;;89.63;51.35;;;0.70;2201.60;;;;;;1251809;27;20072;-80
2021/12/22 18:34:20;;;;;;;107.03;58.65;;;0.70;2201.60;;;;;;4892352;29;20048;-80
2021/12/22 18:37:15;;;;;;;110.63;64.57;;;0.60;2201.60;;;;;;4896565;29;20052;-80
2021/12/22 18:40:48;;;;;;;98.38;56.38;;;0.60;2201.60;;;;;;4885688;29;20061;-80
2021/12/22 18:43:23;;;;;;;90.93;55.25;;;0.60;2201.60;;;;;;4893947;29;20009;-80
2021/12/22 18:46:32;;;;;;;103.93;60.33;;;0.60;2201.60;;;;;;4868447;29;20045;-80
2021/12/22 18:49:37;;;;;;;115.32;73.38;;;0.50;2201.60;;;;;;4887296;29;20029;-80
2021/12/22 18:52:08;;;;;;;167.40;94.07;;;0.50;2201.60;;;;;;4880541;29;20042;-81
2021/12/22 18:54:55;;;;;;;170.15;97.03;;;0.50;2201.60;;;;;;4873928;29;20045;-80
2021/12/22 18:57:44;;;;;;;184.93;100.47;;;0.50;2201.60;;;;;;4831433;29;20026;-80
2021/12/22 19:00:23;;;;;;;174.50;98.07;;;0.50;2201.60;;;;;;4839336;29;20022;-80
2021/12/22 19:03:24;;;;;;;124.25;71.45;;;0.40;2201.60;;;;;;4812251;29;20027;-80
2021/12/22 19:06:45;;;;;;;121.85;68.75;;;0.40;2201.60;;;;;;4827254;29;20035;-80
2021/12/22 19:26:04;;;;;;;125.43;71.10;;;0.30;2201.60;;;;;;5401989;23;20072;-80
2021/12/22 19:28:34;;;;;;;123.60;70.65;;;0.40;2201.60;;;;;;4895529;29;20052;-81
2021/12/22 19:59:34;;;;;;;168.77;89.50;;;0.10;2201.60;;;;;;5959958;23;20054;-76
2021/12/22 20:09:07;;;;;;;197.32;105.40;;;12.90;2201.60;;;;;;6000306;23;20031;31
2021/12/22 20:11:49;;;;;;;170.20;92.65;;;12.90;2201.60;;;;;;4876768;29;20057;-79
2021/12/22 20:14:15;;;;;;;150.95;81.75;;;12.90;2201.60;;;;;;4876285;29;20056;-79
2021/12/22 20:17:43;;;;;;;135.88;77.50;;;12.90;2201.60;;;;;;4895666;29;20069;-81
2021/12/22 20:20:13;;;;;;;114.72;66.80;;;12.90;2201.60;;;;;;4807226;29;20035;-80
2021/12/22 20:22:39;;;;;;;111.65;65.38;;;12.90;2201.60;;;;;;4802187;29;20137;-79
2021/12/22 20:25:11;;;;;;;131.75;67.68;;;12.90;2201.60;;;;;;4784281;29;20038;-79
2021/12/22 20:27:39;;;;;;;136.50;70.63;;;12.90;2201.60;;;;;;4766341;30;20517;-79
2021/12/22 20:30:15;;;;;;;121.88;62.50;;;13.00;2201.60;;;;;;4801764;29;20035;-80
2021/12/22 20:32:43;;;;;;;119.78;64.57;;;13.10;2201.60;;;;;;4804320;29;20137;-77
2021/12/22 20:35:13;;;;;;;106.18;53.85;;;13.00;2201.60;;;;;;4808050;29;20144;-79
2021/12/22 20:37:39;;;;;;;90.40;49.63;;;13.00;2201.60;;;;;;4806744;29;20039;-79
2021/12/22 20:40:07;;;;;;;88.25;49.05;;;13.00;2201.60;;;;;;4788384;30;20111;-78
2021/12/22 20:42:37;;;;;;;86.25;46.20;;;13.00;2201.60;;;;;;4804324;29;20035;-80
2021/12/22 20:45:05;;;;;;;73.40;40.92;;;12.90;2201.60;;;;;;4785632;30;20043;-79
2021/12/22 20:47:32;;;;;;;66.97;38.65;;;0.00;2201.60;;;;;;4789735;29;20047;-79
2021/12/22 20:49:59;;;;;;;63.80;37.65;;;0.00;2201.60;;;;;;4777288;29;20045;-79
2021/12/22 20:52:36;;;;;;;69.22;40.85;;;12.90;2201.60;;;;;;4805448;29;20023;-79
2021/12/22 20:55:29;;;;;;;78.50;42.10;;;12.90;2201.60;;;;;;4881855;29;20057;-79
2021/12/22 20:58:06;;;;;;;112.80;56.10;;;13.00;2201.60;;;;;;4861284;29;20060;-79
2021/12/22 21:00:56;;;;;;;110.13;54.67;;;13.00;2201.60;;;;;;4876564;29;20089;-78
2021/12/22 21:03:55;;;;;;;78.43;42.67;;;13.10;2201.60;;;;;;4893932;29;20045;-80
2021/12/22 21:09:53;;;;;;;73.07;39.70;;;13.20;2201.60;;;;;;4874693;29;20029;-77
2021/12/22 21:12:55;;;;;;;76.57;44.15;;;13.20;2201.60;;;;;;4843506;29;20093;-80
2021/12/22 21:16:15;;;;;;;91.03;47.92;;;13.00;2201.60;;;;;;4782237;30;20050;-81
2021/12/22 21:19:08;;;;;;;82.15;45.63;;;12.90;2201.60;;;;;;4777370;30;20044;-79
2021/12/22 21:21:38;;;;;;;72.13;41.83;;;13.10;2201.60;;;;;;4758032;30;20043;-79
2021/12/22 21:24:31;;;;;;;67.90;37.78;;;13.10;2201.60;;;;;;4762450;30;20040;-80
2021/12/22 21:27:31;;;;;;;73.45;41.00;;;13.20;2201.60;;;;;;4767538;30;20082;-80
2021/12/22 21:41:17;;;;;;;90.68;48.88;;;13.50;2201.60;;;;;;4737888;30;20130;-81
2021/12/22 21:43:45;;;;;;;106.28;57.60;;;13.50;2201.60;;;;;;4708276;30;20053;-79
2021/12/22 22:29:12;;;;;;;107.80;55.08;;;38.60;2201.60;;;;;;4929062;29;20044;-80
2021/12/22 22:32:02;;;;;;;105.35;56.05;;;38.60;2201.60;;;;;;4905805;29;20060;-80
